Startpagina
METAR-TAF:

METAR-TAF

Vliegvelden :

Cape Town International Airport

Kaapstad, Zuid-Afrika

breedte: 33-59S, lengte: 018-36E, hoogte: 42 m

Actueel weer

Dit bericht is 44 minuten geleden gemaakt, om 16:00 UTC
Wind 15 kt uit het zuidoosten
Temperatuur 28°C
Vochtigheid 40%
Druk 1008 hPa
Zicht 10 km of meer
geen wolken onder 1500 m en geen cumulonimbus

METAR: FACT 231600Z 14015KT CAVOK 28/13 Q1008 NOSIG

Tijdstip: 18:44 (16:44 UTC)

Verwachting

Dit bericht is 6 uur en het 44 minuten geleden gemaakt, om 10:00 UTC
Verwachting geldig van 23 om 12 UTC tot 24 om 18 UTC
Wind 12 kt uit het zuidzuidoosten
Zicht 10 km of meer
geen wolken onder 1500 m en geen cumulonimbus
Wijzigt naar
van 23 om 20 UTC tot 23 om 22 UTC
Wind 5 kt uit het zuidwesten
Wijzigt naar
van 24 om 09 UTC tot 24 om 11 UTC
Wind 15 kt uit het zuiden

TAF: FACT 231000Z 2312/2418 16012KT CAVOK TX29/2312Z TN17/2404Z BECMG 2320/2322 22005KT BECMG 2409/2411 19015KT

Waarnemingen en weersverwachtingen van meer dan 4000 vliegvelden (METAR en TAF).

De beschikbare stations zijn de gele en rode punten op de kaart.

Ga met uw muis naar het station om de naam te zien.

Klik dan om waarnemingen en weersverwachtingen te zien.

kaart wijzigen: klik op de groene knoppen met een zwart kruis om in te zoomen, op de groene knop met een streepje om uit te zoomen of op de groene pijlen voor aangrenzende kaarten.


METAR-TAF: